sensor_id;sensor_type;location;lat;lon;timestamp;P1;durP1;ratioP1;P2;durP2;ratioP2
51122;SDS011;37162;41.724;13.346;2023-04-24T00:00:13;3.00;;;1.88;;
51122;SDS011;37162;41.724;13.346;2023-04-24T00:02:39;3.65;;;2.20;;
51122;SDS011;37162;41.724;13.346;2023-04-24T00:05:13;2.83;;;2.03;;
51122;SDS011;37162;41.724;13.346;2023-04-24T00:07:39;2.42;;;1.70;;
51122;SDS011;37162;41.724;13.346;2023-04-24T00:10:05;2.45;;;1.90;;
51122;SDS011;37162;41.724;13.346;2023-04-24T00:12:32;2.50;;;1.98;;
51122;SDS011;37162;41.724;13.346;2023-04-24T00:14:57;2.72;;;1.85;;
51122;SDS011;37162;41.724;13.346;2023-04-24T00:17:22;4.43;;;2.22;;
51122;SDS011;37162;41.724;13.346;2023-04-24T00:19:48;2.42;;;1.80;;
51122;SDS011;37162;41.724;13.346;2023-04-24T00:22:16;2.17;;;1.90;;
51122;SDS011;37162;41.724;13.346;2023-04-24T00:24:42;4.05;;;1.85;;
51122;SDS011;37162;41.724;13.346;2023-04-24T00:27:08;2.35;;;2.05;;
51122;SDS011;37162;41.724;13.346;2023-04-24T00:29:33;2.33;;;1.90;;
51122;SDS011;37162;41.724;13.346;2023-04-24T00:31:58;2.55;;;1.80;;
51122;SDS011;37162;41.724;13.346;2023-04-24T00:34:24;2.85;;;1.77;;
51122;SDS011;37162;41.724;13.346;2023-04-24T00:36:50;2.20;;;1.90;;
51122;SDS011;37162;41.724;13.346;2023-04-24T00:39:19;2.80;;;2.40;;
51122;SDS011;37162;41.724;13.346;2023-04-24T00:41:45;2.80;;;1.80;;
51122;SDS011;37162;41.724;13.346;2023-04-24T00:44:12;2.22;;;1.85;;
51122;SDS011;37162;41.724;13.346;2023-04-24T00:46:37;2.97;;;2.15;;
51122;SDS011;37162;41.724;13.346;2023-04-24T00:49:04;2.22;;;1.80;;
51122;SDS011;37162;41.724;13.346;2023-04-24T00:51:30;2.15;;;1.88;;
51122;SDS011;37162;41.724;13.346;2023-04-24T00:53:57;4.88;;;2.15;;
51122;SDS011;37162;41.724;13.346;2023-04-24T00:56:23;2.60;;;2.00;;
51122;SDS011;37162;41.724;13.346;2023-04-24T00:58:49;3.28;;;2.28;;
51122;SDS011;37162;41.724;13.346;2023-04-24T01:01:15;1.80;;;1.70;;
51122;SDS011;37162;41.724;13.346;2023-04-24T01:03:40;2.22;;;1.70;;
51122;SDS011;37162;41.724;13.346;2023-04-24T01:06:06;3.03;;;2.00;;
51122;SDS011;37162;41.724;13.346;2023-04-24T01:08:33;2.17;;;1.58;;
51122;SDS011;37162;41.724;13.346;2023-04-24T01:11:00;2.45;;;1.80;;
51122;SDS011;37162;41.724;13.346;2023-04-24T01:13:29;1.92;;;1.80;;
51122;SDS011;37162;41.724;13.346;2023-04-24T01:15:55;2.17;;;1.60;;
51122;SDS011;37162;41.724;13.346;2023-04-24T01:18:21;2.30;;;2.05;;
51122;SDS011;37162;41.724;13.346;2023-04-24T01:20:47;1.50;;;1.40;;
51122;SDS011;37162;41.724;13.346;2023-04-24T01:23:18;2.00;;;1.58;;
51122;SDS011;37162;41.724;13.346;2023-04-24T01:25:44;2.97;;;2.45;;
51122;SDS011;37162;41.724;13.346;2023-04-24T01:28:10;2.03;;;1.58;;
51122;SDS011;37162;41.724;13.346;2023-04-24T01:30:36;2.22;;;1.65;;
51122;SDS011;37162;41.724;13.346;2023-04-24T01:33:01;1.90;;;1.58;;
51122;SDS011;37162;41.724;13.346;2023-04-24T01:35:27;1.70;;;1.60;;
51122;SDS011;37162;41.724;13.346;2023-04-24T01:37:53;1.70;;;1.60;;
51122;SDS011;37162;41.724;13.346;2023-04-24T01:40:18;2.72;;;2.08;;
51122;SDS011;37162;41.724;13.346;2023-04-24T01:42:44;4.25;;;2.20;;
51122;SDS011;37162;41.724;13.346;2023-04-24T01:45:10;1.80;;;1.60;;
51122;SDS011;37162;41.724;13.346;2023-04-24T01:47:37;2.65;;;1.73;;
51122;SDS011;37162;41.724;13.346;2023-04-24T01:50:04;5.90;;;2.40;;
51122;SDS011;37162;41.724;13.346;2023-04-24T01:52:30;3.47;;;1.90;;
51122;SDS011;37162;41.724;13.346;2023-04-24T01:55:00;2.22;;;1.83;;
51122;SDS011;37162;41.724;13.346;2023-04-24T01:57:26;2.47;;;1.95;;
51122;SDS011;37162;41.724;13.346;2023-04-24T01:59:52;2.20;;;1.58;;
51122;SDS011;37162;41.724;13.346;2023-04-24T02:02:18;2.75;;;1.75;;
51122;SDS011;37162;41.724;13.346;2023-04-24T02:04:43;2.55;;;1.85;;
51122;SDS011;37162;41.724;13.346;2023-04-24T02:07:09;2.63;;;1.67;;
51122;SDS011;37162;41.724;13.346;2023-04-24T02:09:35;1.95;;;1.60;;
51122;SDS011;37162;41.724;13.346;2023-04-24T02:12:00;1.75;;;1.60;;
51122;SDS011;37162;41.724;13.346;2023-04-24T02:14:26;2.20;;;1.98;;
51122;SDS011;37162;41.724;13.346;2023-04-24T02:16:51;2.58;;;1.75;;
51122;SDS011;37162;41.724;13.346;2023-04-24T02:19:18;2.08;;;1.70;;
51122;SDS011;37162;41.724;13.346;2023-04-24T02:21:43;3.30;;;1.80;;
51122;SDS011;37162;41.724;13.346;2023-04-24T02:24:09;2.00;;;1.80;;
51122;SDS011;37162;41.724;13.346;2023-04-24T02:26:35;2.40;;;1.50;;
51122;SDS011;37162;41.724;13.346;2023-04-24T02:29:00;3.15;;;1.50;;
51122;SDS011;37162;41.724;13.346;2023-04-24T02:31:26;2.83;;;1.80;;
51122;SDS011;37162;41.724;13.346;2023-04-24T02:33:52;2.58;;;1.73;;
51122;SDS011;37162;41.724;13.346;2023-04-24T02:36:17;4.00;;;1.80;;
51122;SDS011;37162;41.724;13.346;2023-04-24T02:38:42;2.13;;;1.70;;
51122;SDS011;37162;41.724;13.346;2023-04-24T02:41:08;2.45;;;1.75;;
51122;SDS011;37162;41.724;13.346;2023-04-24T02:43:33;1.70;;;1.60;;
51122;SDS011;37162;41.724;13.346;2023-04-24T02:45:59;2.88;;;1.98;;
51122;SDS011;37162;41.724;13.346;2023-04-24T02:48:24;3.50;;;1.95;;
51122;SDS011;37162;41.724;13.346;2023-04-24T02:50:50;4.88;;;1.70;;
51122;SDS011;37162;41.724;13.346;2023-04-24T02:53:16;1.92;;;1.65;;
51122;SDS011;37162;41.724;13.346;2023-04-24T02:55:41;2.80;;;1.83;;
51122;SDS011;37162;41.724;13.346;2023-04-24T02:58:07;3.58;;;1.65;;
51122;SDS011;37162;41.724;13.346;2023-04-24T03:00:32;2.33;;;2.00;;
51122;SDS011;37162;41.724;13.346;2023-04-24T03:02:58;1.80;;;1.60;;
51122;SDS011;37162;41.724;13.346;2023-04-24T03:05:23;2.90;;;1.63;;
51122;SDS011;37162;41.724;13.346;2023-04-24T03:07:48;2.92;;;1.65;;
51122;SDS011;37162;41.724;13.346;2023-04-24T03:10:14;2.35;;;1.60;;
51122;SDS011;37162;41.724;13.346;2023-04-24T03:12:40;2.35;;;1.48;;
51122;SDS011;37162;41.724;13.346;2023-04-24T03:15:05;1.77;;;1.48;;
51122;SDS011;37162;41.724;13.346;2023-04-24T03:17:31;2.28;;;1.40;;
51122;SDS011;37162;41.724;13.346;2023-04-24T03:19:57;2.17;;;1.60;;
51122;SDS011;37162;41.724;13.346;2023-04-24T03:22:23;2.25;;;1.67;;
51122;SDS011;37162;41.724;13.346;2023-04-24T03:24:48;1.92;;;1.45;;
51122;SDS011;37162;41.724;13.346;2023-04-24T03:27:13;2.40;;;1.40;;
51122;SDS011;37162;41.724;13.346;2023-04-24T03:29:39;2.10;;;1.70;;
51122;SDS011;37162;41.724;13.346;2023-04-24T03:32:04;2.47;;;1.77;;
51122;SDS011;37162;41.724;13.346;2023-04-24T03:34:30;2.42;;;1.58;;
51122;SDS011;37162;41.724;13.346;2023-04-24T03:36:55;2.28;;;1.55;;
51122;SDS011;37162;41.724;13.346;2023-04-24T03:39:20;2.95;;;1.60;;
51122;SDS011;37162;41.724;13.346;2023-04-24T03:41:46;1.70;;;1.60;;
51122;SDS011;37162;41.724;13.346;2023-04-24T03:44:11;3.03;;;1.80;;
51122;SDS011;37162;41.724;13.346;2023-04-24T03:46:37;3.28;;;2.20;;
51122;SDS011;37162;41.724;13.346;2023-04-24T03:49:02;2.88;;;1.85;;
51122;SDS011;37162;41.724;13.346;2023-04-24T03:51:28;5.10;;;2.45;;
51122;SDS011;37162;41.724;13.346;2023-04-24T03:53:55;1.88;;;1.67;;
51122;SDS011;37162;41.724;13.346;2023-04-24T03:56:20;2.45;;;1.58;;
51122;SDS011;37162;41.724;13.346;2023-04-24T03:58:46;2.35;;;1.50;;
51122;SDS011;37162;41.724;13.346;2023-04-24T04:01:11;2.33;;;1.67;;
51122;SDS011;37162;41.724;13.346;2023-04-24T04:03:37;2.80;;;1.60;;
51122;SDS011;37162;41.724;13.346;2023-04-24T04:06:02;2.35;;;1.70;;
51122;SDS011;37162;41.724;13.346;2023-04-24T04:08:28;2.63;;;1.42;;
51122;SDS011;37162;41.724;13.346;2023-04-24T04:10:53;2.10;;;1.60;;
51122;SDS011;37162;41.724;13.346;2023-04-24T04:13:19;1.83;;;1.60;;
51122;SDS011;37162;41.724;13.346;2023-04-24T04:15:44;3.25;;;1.80;;
51122;SDS011;37162;41.724;13.346;2023-04-24T04:18:10;5.88;;;1.70;;
51122;SDS011;37162;41.724;13.346;2023-04-24T04:20:36;1.95;;;1.52;;
51122;SDS011;37162;41.724;13.346;2023-04-24T04:23:01;3.63;;;1.40;;
51122;SDS011;37162;41.724;13.346;2023-04-24T04:25:26;2.30;;;1.67;;
51122;SDS011;37162;41.724;13.346;2023-04-24T04:27:52;1.63;;;1.52;;
51122;SDS011;37162;41.724;13.346;2023-04-24T04:30:18;3.78;;;1.85;;
51122;SDS011;37162;41.724;13.346;2023-04-24T04:32:45;3.33;;;1.80;;
51122;SDS011;37162;41.724;13.346;2023-04-24T04:35:11;2.65;;;1.92;;
51122;SDS011;37162;41.724;13.346;2023-04-24T04:37:37;3.10;;;1.92;;
51122;SDS011;37162;41.724;13.346;2023-04-24T04:40:03;3.10;;;1.73;;
51122;SDS011;37162;41.724;13.346;2023-04-24T04:42:31;2.95;;;1.63;;
51122;SDS011;37162;41.724;13.346;2023-04-24T04:44:59;2.92;;;1.73;;
51122;SDS011;37162;41.724;13.346;2023-04-24T04:47:24;2.25;;;1.42;;
51122;SDS011;37162;41.724;13.346;2023-04-24T04:49:51;3.60;;;1.85;;
51122;SDS011;37162;41.724;13.346;2023-04-24T04:52:17;2.92;;;2.08;;
51122;SDS011;37162;41.724;13.346;2023-04-24T04:54:43;2.67;;;1.67;;
51122;SDS011;37162;41.724;13.346;2023-04-24T04:57:08;2.80;;;1.42;;
51122;SDS011;37162;41.724;13.346;2023-04-24T04:59:35;2.85;;;1.55;;
51122;SDS011;37162;41.724;13.346;2023-04-24T05:02:00;3.08;;;1.70;;
51122;SDS011;37162;41.724;13.346;2023-04-24T05:04:25;1.67;;;1.45;;
51122;SDS011;37162;41.724;13.346;2023-04-24T05:06:51;3.08;;;1.60;;
51122;SDS011;37162;41.724;13.346;2023-04-24T05:09:17;2.13;;;1.70;;
51122;SDS011;37162;41.724;13.346;2023-04-24T05:11:43;2.83;;;1.77;;
51122;SDS011;37162;41.724;13.346;2023-04-24T05:14:09;3.30;;;2.08;;
51122;SDS011;37162;41.724;13.346;2023-04-24T05:16:34;2.13;;;1.70;;
51122;SDS011;37162;41.724;13.346;2023-04-24T05:19:02;5.03;;;2.28;;
51122;SDS011;37162;41.724;13.346;2023-04-24T05:21:27;3.88;;;2.10;;
51122;SDS011;37162;41.724;13.346;2023-04-24T05:23:52;3.58;;;1.58;;
51122;SDS011;37162;41.724;13.346;2023-04-24T05:26:18;2.80;;;2.08;;
51122;SDS011;37162;41.724;13.346;2023-04-24T05:28:44;4.13;;;2.00;;
51122;SDS011;37162;41.724;13.346;2023-04-24T05:31:09;2.20;;;1.70;;
51122;SDS011;37162;41.724;13.346;2023-04-24T05:33:35;3.75;;;2.10;;
51122;SDS011;37162;41.724;13.346;2023-04-24T05:36:00;1.90;;;1.70;;
51122;SDS011;37162;41.724;13.346;2023-04-24T05:38:26;2.75;;;1.80;;
51122;SDS011;37162;41.724;13.346;2023-04-24T05:40:51;3.00;;;1.90;;
51122;SDS011;37162;41.724;13.346;2023-04-24T05:43:16;2.97;;;1.90;;
51122;SDS011;37162;41.724;13.346;2023-04-24T05:45:42;4.75;;;1.48;;
51122;SDS011;37162;41.724;13.346;2023-04-24T05:48:07;2.20;;;1.65;;
51122;SDS011;37162;41.724;13.346;2023-04-24T05:50:33;2.03;;;1.70;;
51122;SDS011;37162;41.724;13.346;2023-04-24T05:52:58;2.45;;;1.50;;
51122;SDS011;37162;41.724;13.346;2023-04-24T05:55:24;2.03;;;1.48;;
51122;SDS011;37162;41.724;13.346;2023-04-24T05:57:50;2.80;;;1.70;;
51122;SDS011;37162;41.724;13.346;2023-04-24T06:00:16;4.70;;;1.60;;
51122;SDS011;37162;41.724;13.346;2023-04-24T06:02:42;2.38;;;1.70;;
51122;SDS011;37162;41.724;13.346;2023-04-24T06:05:08;2.10;;;1.85;;
51122;SDS011;37162;41.724;13.346;2023-04-24T06:07:34;3.08;;;1.67;;
51122;SDS011;37162;41.724;13.346;2023-04-24T06:10:00;2.70;;;1.67;;
51122;SDS011;37162;41.724;13.346;2023-04-24T06:12:26;2.35;;;1.60;;
51122;SDS011;37162;41.724;13.346;2023-04-24T06:14:52;2.17;;;1.67;;
51122;SDS011;37162;41.724;13.346;2023-04-24T06:17:17;3.58;;;1.85;;
51122;SDS011;37162;41.724;13.346;2023-04-24T06:19:43;3.53;;;1.80;;
51122;SDS011;37162;41.724;13.346;2023-04-24T06:22:08;2.92;;;1.80;;
51122;SDS011;37162;41.724;13.346;2023-04-24T06:24:34;2.97;;;1.80;;
51122;SDS011;37162;41.724;13.346;2023-04-24T06:27:00;3.05;;;1.67;;
51122;SDS011;37162;41.724;13.346;2023-04-24T06:29:26;1.75;;;1.65;;
51122;SDS011;37162;41.724;13.346;2023-04-24T06:31:52;3.63;;;1.67;;
51122;SDS011;37162;41.724;13.346;2023-04-24T06:34:17;2.20;;;1.67;;
51122;SDS011;37162;41.724;13.346;2023-04-24T06:36:43;4.75;;;1.80;;
51122;SDS011;37162;41.724;13.346;2023-04-24T06:39:08;4.63;;;2.05;;
51122;SDS011;37162;41.724;13.346;2023-04-24T06:41:34;3.45;;;1.90;;
51122;SDS011;37162;41.724;13.346;2023-04-24T06:44:00;3.75;;;1.70;;
51122;SDS011;37162;41.724;13.346;2023-04-24T06:46:25;3.67;;;1.73;;
51122;SDS011;37162;41.724;13.346;2023-04-24T06:48:52;3.67;;;2.00;;
51122;SDS011;37162;41.724;13.346;2023-04-24T06:51:24;3.35;;;2.10;;
51122;SDS011;37162;41.724;13.346;2023-04-24T06:53:54;2.35;;;1.67;;
51122;SDS011;37162;41.724;13.346;2023-04-24T06:56:21;2.63;;;1.73;;
51122;SDS011;37162;41.724;13.346;2023-04-24T06:58:47;2.42;;;1.90;;
51122;SDS011;37162;41.724;13.346;2023-04-24T07:01:13;2.85;;;2.00;;
51122;SDS011;37162;41.724;13.346;2023-04-24T07:03:39;3.45;;;1.90;;
51122;SDS011;37162;41.724;13.346;2023-04-24T07:06:05;2.65;;;1.95;;
51122;SDS011;37162;41.724;13.346;2023-04-24T07:08:31;2.85;;;1.77;;
51122;SDS011;37162;41.724;13.346;2023-04-24T07:10:58;3.45;;;1.98;;
51122;SDS011;37162;41.724;13.346;2023-04-24T07:13:23;5.47;;;1.80;;
51122;SDS011;37162;41.724;13.346;2023-04-24T07:15:49;2.50;;;1.95;;
51122;SDS011;37162;41.724;13.346;2023-04-24T07:18:17;3.83;;;2.00;;
51122;SDS011;37162;41.724;13.346;2023-04-24T07:20:43;3.25;;;2.05;;
51122;SDS011;37162;41.724;13.346;2023-04-24T07:23:09;3.33;;;2.08;;
51122;SDS011;37162;41.724;13.346;2023-04-24T07:25:34;4.13;;;2.17;;
51122;SDS011;37162;41.724;13.346;2023-04-24T07:28:00;2.75;;;2.08;;
51122;SDS011;37162;41.724;13.346;2023-04-24T07:30:26;2.97;;;2.13;;
51122;SDS011;37162;41.724;13.346;2023-04-24T07:32:53;3.65;;;2.78;;
51122;SDS011;37162;41.724;13.346;2023-04-24T07:35:19;2.88;;;2.47;;
51122;SDS011;37162;41.724;13.346;2023-04-24T07:37:45;3.97;;;2.65;;
51122;SDS011;37162;41.724;13.346;2023-04-24T07:40:13;2.00;;;1.80;;
51122;SDS011;37162;41.724;13.346;2023-04-24T07:42:39;3.63;;;2.28;;
51122;SDS011;37162;41.724;13.346;2023-04-24T07:45:05;3.33;;;2.42;;
51122;SDS011;37162;41.724;13.346;2023-04-24T07:47:31;3.47;;;2.60;;
51122;SDS011;37162;41.724;13.346;2023-04-24T07:49:57;3.60;;;2.58;;
51122;SDS011;37162;41.724;13.346;2023-04-24T07:52:23;3.13;;;2.30;;
51122;SDS011;37162;41.724;13.346;2023-04-24T07:54:48;4.60;;;2.65;;
51122;SDS011;37162;41.724;13.346;2023-04-24T07:57:15;2.85;;;2.03;;
51122;SDS011;37162;41.724;13.346;2023-04-24T07:59:40;3.05;;;2.28;;
51122;SDS011;37162;41.724;13.346;2023-04-24T08:02:06;4.97;;;2.25;;
51122;SDS011;37162;41.724;13.346;2023-04-24T08:04:32;3.92;;;2.35;;
51122;SDS011;37162;41.724;13.346;2023-04-24T08:06:58;4.43;;;2.97;;
51122;SDS011;37162;41.724;13.346;2023-04-24T08:09:23;5.90;;;2.63;;
51122;SDS011;37162;41.724;13.346;2023-04-24T08:11:49;5.05;;;2.75;;
51122;SDS011;37162;41.724;13.346;2023-04-24T08:14:14;4.78;;;2.70;;
51122;SDS011;37162;41.724;13.346;2023-04-24T08:16:40;8.13;;;2.75;;
51122;SDS011;37162;41.724;13.346;2023-04-24T08:19:06;5.38;;;2.95;;
51122;SDS011;37162;41.724;13.346;2023-04-24T08:21:32;5.05;;;2.65;;
51122;SDS011;37162;41.724;13.346;2023-04-24T08:23:57;5.25;;;3.33;;
51122;SDS011;37162;41.724;13.346;2023-04-24T08:26:23;5.00;;;2.75;;
51122;SDS011;37162;41.724;13.346;2023-04-24T08:28:48;3.95;;;2.60;;
51122;SDS011;37162;41.724;13.346;2023-04-24T08:31:14;6.10;;;3.05;;
51122;SDS011;37162;41.724;13.346;2023-04-24T08:33:40;6.30;;;3.03;;
51122;SDS011;37162;41.724;13.346;2023-04-24T08:36:06;5.72;;;3.13;;
51122;SDS011;37162;41.724;13.346;2023-04-24T08:38:32;5.15;;;2.92;;
51122;SDS011;37162;41.724;13.346;2023-04-24T08:40:58;4.10;;;2.88;;
51122;SDS011;37162;41.724;13.346;2023-04-24T08:43:25;4.63;;;3.50;;
51122;SDS011;37162;41.724;13.346;2023-04-24T08:45:51;5.28;;;3.00;;
51122;SDS011;37162;41.724;13.346;2023-04-24T08:48:17;5.35;;;3.13;;
51122;SDS011;37162;41.724;13.346;2023-04-24T08:50:43;6.22;;;3.10;;
51122;SDS011;37162;41.724;13.346;2023-04-24T08:53:09;5.22;;;3.25;;
51122;SDS011;37162;41.724;13.346;2023-04-24T08:55:35;3.95;;;3.20;;
51122;SDS011;37162;41.724;13.346;2023-04-24T08:58:02;5.03;;;2.95;;
51122;SDS011;37162;41.724;13.346;2023-04-24T09:00:29;4.53;;;2.65;;
51122;SDS011;37162;41.724;13.346;2023-04-24T09:02:55;2.80;;;2.50;;
51122;SDS011;37162;41.724;13.346;2023-04-24T09:05:21;5.35;;;3.05;;
51122;SDS011;37162;41.724;13.346;2023-04-24T09:07:57;5.13;;;2.90;;
51122;SDS011;37162;41.724;13.346;2023-04-24T09:10:26;4.82;;;3.28;;
51122;SDS011;37162;41.724;13.346;2023-04-24T09:12:55;5.00;;;3.10;;
51122;SDS011;37162;41.724;13.346;2023-04-24T09:15:23;5.07;;;3.13;;
51122;SDS011;37162;41.724;13.346;2023-04-24T09:17:49;4.05;;;2.55;;
51122;SDS011;37162;41.724;13.346;2023-04-24T09:20:15;4.97;;;3.60;;
51122;SDS011;37162;41.724;13.346;2023-04-24T09:22:41;4.57;;;3.22;;
51122;SDS011;37162;41.724;13.346;2023-04-24T09:25:08;9.77;;;3.55;;
51122;SDS011;37162;41.724;13.346;2023-04-24T09:27:34;7.82;;;3.30;;
51122;SDS011;37162;41.724;13.346;2023-04-24T09:30:00;6.00;;;3.30;;
51122;SDS011;37162;41.724;13.346;2023-04-24T09:32:26;6.43;;;3.58;;
51122;SDS011;37162;41.724;13.346;2023-04-24T09:37:35;19.40;;;4.45;;
51122;SDS011;37162;41.724;13.346;2023-04-24T09:40:09;14.07;;;3.42;;
51122;SDS011;37162;41.724;13.346;2023-04-24T09:42:38;13.50;;;4.50;;
51122;SDS011;37162;41.724;13.346;2023-04-24T09:45:08;4.78;;;3.20;;
51122;SDS011;37162;41.724;13.346;2023-04-24T09:47:35;5.47;;;3.28;;
51122;SDS011;37162;41.724;13.346;2023-04-24T09:50:15;5.35;;;3.67;;
51122;SDS011;37162;41.724;13.346;2023-04-24T09:52:42;5.22;;;2.92;;
51122;SDS011;37162;41.724;13.346;2023-04-24T09:55:19;3.20;;;2.38;;
51122;SDS011;37162;41.724;13.346;2023-04-24T10:00:23;6.35;;;3.40;;
51122;SDS011;37162;41.724;13.346;2023-04-24T10:02:50;5.63;;;3.28;;
51122;SDS011;37162;41.724;13.346;2023-04-24T10:05:22;23.20;;;3.35;;
51122;SDS011;37162;41.724;13.346;2023-04-24T10:07:48;5.25;;;2.92;;
51122;SDS011;37162;41.724;13.346;2023-04-24T10:10:14;4.30;;;3.30;;
51122;SDS011;37162;41.724;13.346;2023-04-24T10:12:40;4.10;;;2.97;;
51122;SDS011;37162;41.724;13.346;2023-04-24T10:15:06;6.60;;;2.78;;
51122;SDS011;37162;41.724;13.346;2023-04-24T10:17:32;5.43;;;2.80;;
51122;SDS011;37162;41.724;13.346;2023-04-24T10:19:59;4.40;;;2.88;;
51122;SDS011;37162;41.724;13.346;2023-04-24T10:22:26;5.97;;;3.25;;
51122;SDS011;37162;41.724;13.346;2023-04-24T10:24:54;7.18;;;3.20;;
51122;SDS011;37162;41.724;13.346;2023-04-24T10:27:22;5.85;;;2.92;;
51122;SDS011;37162;41.724;13.346;2023-04-24T10:29:48;8.23;;;2.67;;
51122;SDS011;37162;41.724;13.346;2023-04-24T10:32:18;9.95;;;3.72;;
51122;SDS011;37162;41.724;13.346;2023-04-24T10:34:43;6.47;;;3.50;;
51122;SDS011;37162;41.724;13.346;2023-04-24T10:37:09;8.07;;;3.58;;
51122;SDS011;37162;41.724;13.346;2023-04-24T10:39:34;6.97;;;2.90;;
51122;SDS011;37162;41.724;13.346;2023-04-24T10:42:02;8.57;;;3.17;;
51122;SDS011;37162;41.724;13.346;2023-04-24T10:44:40;8.25;;;3.15;;
51122;SDS011;37162;41.724;13.346;2023-04-24T10:47:05;14.30;;;3.17;;
51122;SDS011;37162;41.724;13.346;2023-04-24T10:49:38;4.80;;;2.83;;
51122;SDS011;37162;41.724;13.346;2023-04-24T10:52:04;8.00;;;3.05;;
51122;SDS011;37162;41.724;13.346;2023-04-24T10:59:48;3.88;;;2.40;;
51122;SDS011;37162;41.724;13.346;2023-04-24T11:02:37;4.65;;;2.80;;
51122;SDS011;37162;41.724;13.346;2023-04-24T11:05:05;3.85;;;2.50;;
51122;SDS011;37162;41.724;13.346;2023-04-24T11:10:38;4.88;;;2.70;;
51122;SDS011;37162;41.724;13.346;2023-04-24T11:13:04;8.88;;;3.47;;
51122;SDS011;37162;41.724;13.346;2023-04-24T11:15:29;4.63;;;2.70;;
51122;SDS011;37162;41.724;13.346;2023-04-24T11:17:55;8.60;;;3.13;;
51122;SDS011;37162;41.724;13.346;2023-04-24T11:20:22;6.43;;;2.47;;
51122;SDS011;37162;41.724;13.346;2023-04-24T11:22:48;6.97;;;2.38;;
51122;SDS011;37162;41.724;13.346;2023-04-24T11:25:21;4.15;;;2.63;;
51122;SDS011;37162;41.724;13.346;2023-04-24T11:27:47;5.55;;;2.50;;
51122;SDS011;37162;41.724;13.346;2023-04-24T11:30:18;7.82;;;2.90;;
51122;SDS011;37162;41.724;13.346;2023-04-24T11:32:50;5.97;;;2.50;;
51122;SDS011;37162;41.724;13.346;2023-04-24T11:35:22;8.32;;;2.90;;
51122;SDS011;37162;41.724;13.346;2023-04-24T11:37:53;10.40;;;2.88;;
51122;SDS011;37162;41.724;13.346;2023-04-24T11:40:20;4.57;;;2.70;;
51122;SDS011;37162;41.724;13.346;2023-04-24T11:42:48;5.63;;;2.33;;
51122;SDS011;37162;41.724;13.346;2023-04-24T11:45:16;7.00;;;2.80;;
51122;SDS011;37162;41.724;13.346;2023-04-24T11:47:43;5.53;;;2.95;;
51122;SDS011;37162;41.724;13.346;2023-04-24T11:50:11;5.95;;;2.55;;
51122;SDS011;37162;41.724;13.346;2023-04-24T11:52:40;7.38;;;2.85;;
51122;SDS011;37162;41.724;13.346;2023-04-24T11:55:07;4.63;;;2.45;;
51122;SDS011;37162;41.724;13.346;2023-04-24T11:57:54;3.38;;;2.55;;
51122;SDS011;37162;41.724;13.346;2023-04-24T12:00:22;3.25;;;2.15;;
51122;SDS011;37162;41.724;13.346;2023-04-24T12:02:50;3.38;;;1.98;;
51122;SDS011;37162;41.724;13.346;2023-04-24T12:05:19;5.28;;;2.15;;
51122;SDS011;37162;41.724;13.346;2023-04-24T12:07:46;2.35;;;1.90;;
51122;SDS011;37162;41.724;13.346;2023-04-24T12:10:11;3.53;;;2.13;;
51122;SDS011;37162;41.724;13.346;2023-04-24T12:12:36;5.75;;;2.03;;
51122;SDS011;37162;41.724;13.346;2023-04-24T12:15:06;4.13;;;1.90;;
51122;SDS011;37162;41.724;13.346;2023-04-24T12:17:33;3.03;;;1.70;;
51122;SDS011;37162;41.724;13.346;2023-04-24T12:22:25;3.20;;;2.10;;
51122;SDS011;37162;41.724;13.346;2023-04-24T12:27:22;2.73;;;2.20;;
51122;SDS011;37162;41.724;13.346;2023-04-24T12:29:51;3.45;;;1.95;;
51122;SDS011;37162;41.724;13.346;2023-04-24T12:32:18;2.83;;;2.22;;
51122;SDS011;37162;41.724;13.346;2023-04-24T12:34:43;3.90;;;1.92;;
51122;SDS011;37162;41.724;13.346;2023-04-24T12:37:10;2.63;;;1.90;;
51122;SDS011;37162;41.724;13.346;2023-04-24T12:39:36;3.97;;;2.17;;
51122;SDS011;37162;41.724;13.346;2023-04-24T12:42:01;2.38;;;1.55;;
51122;SDS011;37162;41.724;13.346;2023-04-24T12:44:30;2.47;;;1.60;;
51122;SDS011;37162;41.724;13.346;2023-04-24T12:46:56;2.40;;;1.52;;
51122;SDS011;37162;41.724;13.346;2023-04-24T12:49:22;3.95;;;1.50;;
51122;SDS011;37162;41.724;13.346;2023-04-24T12:51:48;4.85;;;2.00;;
51122;SDS011;37162;41.724;13.346;2023-04-24T12:54:13;3.38;;;1.65;;
51122;SDS011;37162;41.724;13.346;2023-04-24T12:56:39;1.88;;;1.40;;
51122;SDS011;37162;41.724;13.346;2023-04-24T12:59:04;2.50;;;1.30;;
51122;SDS011;37162;41.724;13.346;2023-04-24T13:01:30;2.65;;;1.58;;
51122;SDS011;37162;41.724;13.346;2023-04-24T13:03:56;2.20;;;1.55;;
51122;SDS011;37162;41.724;13.346;2023-04-24T13:06:21;2.20;;;1.60;;
51122;SDS011;37162;41.724;13.346;2023-04-24T13:08:46;3.20;;;1.75;;
51122;SDS011;37162;41.724;13.346;2023-04-24T13:11:13;5.35;;;2.00;;
51122;SDS011;37162;41.724;13.346;2023-04-24T13:13:39;5.18;;;1.88;;
51122;SDS011;37162;41.724;13.346;2023-04-24T13:16:04;2.45;;;1.67;;
51122;SDS011;37162;41.724;13.346;2023-04-24T13:18:30;4.28;;;1.50;;
51122;SDS011;37162;41.724;13.346;2023-04-24T13:20:56;4.15;;;1.70;;
51122;SDS011;37162;41.724;13.346;2023-04-24T13:23:21;2.85;;;1.65;;
51122;SDS011;37162;41.724;13.346;2023-04-24T13:25:48;2.13;;;1.48;;
51122;SDS011;37162;41.724;13.346;2023-04-24T13:28:13;2.97;;;1.40;;
51122;SDS011;37162;41.724;13.346;2023-04-24T13:30:38;4.32;;;1.60;;
51122;SDS011;37162;41.724;13.346;2023-04-24T13:33:04;3.90;;;1.70;;
51122;SDS011;37162;41.724;13.346;2023-04-24T13:35:29;2.90;;;2.00;;
51122;SDS011;37162;41.724;13.346;2023-04-24T13:37:55;9.40;;;1.60;;
51122;SDS011;37162;41.724;13.346;2023-04-24T13:40:21;2.33;;;1.30;;
51122;SDS011;37162;41.724;13.346;2023-04-24T13:42:46;3.85;;;1.88;;
51122;SDS011;37162;41.724;13.346;2023-04-24T13:45:12;5.53;;;1.45;;
51122;SDS011;37162;41.724;13.346;2023-04-24T13:47:37;4.68;;;1.73;;
51122;SDS011;37162;41.724;13.346;2023-04-24T13:50:05;6.45;;;2.42;;
51122;SDS011;37162;41.724;13.346;2023-04-24T13:52:32;3.92;;;1.80;;
51122;SDS011;37162;41.724;13.346;2023-04-24T13:54:57;4.35;;;1.92;;
51122;SDS011;37162;41.724;13.346;2023-04-24T13:57:23;9.70;;;2.63;;
51122;SDS011;37162;41.724;13.346;2023-04-24T13:59:48;9.32;;;2.67;;
51122;SDS011;37162;41.724;13.346;2023-04-24T14:02:14;4.78;;;1.98;;
51122;SDS011;37162;41.724;13.346;2023-04-24T14:04:39;5.95;;;2.83;;
51122;SDS011;37162;41.724;13.346;2023-04-24T14:07:05;8.52;;;2.63;;
51122;SDS011;37162;41.724;13.346;2023-04-24T14:09:30;5.80;;;2.58;;
51122;SDS011;37162;41.724;13.346;2023-04-24T14:11:56;7.78;;;2.10;;
51122;SDS011;37162;41.724;13.346;2023-04-24T14:14:21;5.57;;;2.10;;
51122;SDS011;37162;41.724;13.346;2023-04-24T14:16:47;5.75;;;2.65;;
51122;SDS011;37162;41.724;13.346;2023-04-24T14:19:12;5.60;;;2.45;;
51122;SDS011;37162;41.724;13.346;2023-04-24T14:21:38;7.57;;;2.55;;
51122;SDS011;37162;41.724;13.346;2023-04-24T14:24:03;5.53;;;1.92;;
51122;SDS011;37162;41.724;13.346;2023-04-24T14:26:29;5.53;;;1.73;;
51122;SDS011;37162;41.724;13.346;2023-04-24T14:28:54;7.65;;;1.70;;
51122;SDS011;37162;41.724;13.346;2023-04-24T14:31:20;4.97;;;1.83;;
51122;SDS011;37162;41.724;13.346;2023-04-24T14:33:45;5.28;;;1.77;;
51122;SDS011;37162;41.724;13.346;2023-04-24T14:36:11;6.43;;;2.65;;
51122;SDS011;37162;41.724;13.346;2023-04-24T14:38:36;5.43;;;2.28;;
51122;SDS011;37162;41.724;13.346;2023-04-24T14:41:02;7.03;;;1.73;;
51122;SDS011;37162;41.724;13.346;2023-04-24T14:43:33;6.60;;;2.53;;
51122;SDS011;37162;41.724;13.346;2023-04-24T14:46:00;3.17;;;1.70;;